Terminal Aerodrome Forecast
Issued by NWS

Home | Current Version | Previous Version | Text Only | Print | Product List | Glossary On
Versions: 1 2 3 4 5 6 7 8 9 10 11 12 13 14 15 16 17 18
000
FTUS46 KLOX 271742
TAFLGB
TAF
KLGB 271742Z 2718/2818 19007KT P6SM SKC
     FM272300 29008KT P6SM SKC
     FM280900 VRB03KT P6SM BKN009
     FM281300 14004KT P6SM BKN014
     FM281600 19006KT P6SM FEW014=

USA.gov is the U.S. government's official web portal to all federal, state and local government web resources and services.